Time,TemperatureF,DewpointF,PressureIn,WindDirection,WindDirectionDegrees,WindSpeedMPH,WindSpeedGustMPH,Humidity,HourlyPrecipIn,Conditions,Clouds,dailyrainin,SoftwareType,DateUTC
2013-09-15 00:03:00,54.0,49.0,-100.00,SW,225,1.0,4.0,86,0.00,,,-99.99,,2013-09-15 05:03:00,
2013-09-15 00:52:00,53.0,49.0,-100.00,West,270,0.0,1.0,87,0.00,,,-99.99,,2013-09-15 05:52:00,
2013-09-15 01:02:00,53.0,49.0,-100.00,West,270,0.0,1.0,87,0.00,,,-99.99,,2013-09-15 06:02:00,
2013-09-15 01:12:00,53.0,49.0,-100.00,West,270,0.0,1.0,87,0.00,,,-99.99,,2013-09-15 06:12:00,
2013-09-15 01:52:00,53.0,49.0,-100.00,NW,305,0.0,1.0,87,0.00,,,-99.99,,2013-09-15 06:52:00,
2013-09-15 02:02:00,53.0,49.0,-100.00,NW,305,0.0,1.0,87,0.00,,,-99.99,,2013-09-15 07:02:00,
2013-09-15 02:11:00,53.0,49.0,-100.00,NW,305,0.0,1.0,87,0.00,,,-99.99,,2013-09-15 07:11:00,
2013-09-15 02:52:00,53.0,49.0,-100.00,West,280,0.0,1.0,87,0.00,,,-99.99,,2013-09-15 07:52:00,
2013-09-15 03:02:00,53.0,49.0,-100.00,West,280,0.0,1.0,87,0.00,,,-99.99,,2013-09-15 08:02:00,
2013-09-15 03:11:00,53.0,49.0,-100.00,West,280,0.0,1.0,87,0.00,,,-99.99,,2013-09-15 08:11:00,
2013-09-15 03:52:00,53.0,49.0,-100.00,West,280,1.0,2.0,87,0.00,,,-99.99,,2013-09-15 08:52:00,
2013-09-15 04:02:00,53.0,49.0,-100.00,West,280,1.0,2.0,87,0.00,,,-99.99,,2013-09-15 09:02:00,
2013-09-15 04:12:00,53.0,49.0,-100.00,West,280,1.0,2.0,87,0.00,,,-99.99,,2013-09-15 09:12:00,
2013-09-15 04:13:00,53.0,49.0,-100.00,WNW,300,2.0,4.0,87,0.00,,,-99.99,,2013-09-15 09:13:00,
2013-09-15 04:44:00,53.0,49.0,-100.00,WNW,300,2.0,4.0,87,0.00,,,-99.99,,2013-09-15 09:44:00,
2013-09-15 04:53:00,53.0,49.0,-100.00,WNW,300,2.0,4.0,87,0.00,,,-99.99,,2013-09-15 09:53:00,
2013-09-15 05:03:00,53.0,49.0,-100.00,WNW,300,2.0,4.0,87,0.00,,,-99.99,,2013-09-15 10:03:00,
2013-09-15 05:43:00,53.0,49.0,-100.00,West,260,0.0,1.0,87,0.00,,,-99.99,,2013-09-15 10:43:00,
2013-09-15 05:53:00,53.0,49.0,-100.00,West,260,0.0,1.0,87,0.00,,,-99.99,,2013-09-15 10:53:00,
2013-09-15 06:02:00,53.0,49.0,-100.00,West,260,0.0,1.0,87,0.00,,,-99.99,,2013-09-15 11:02:00,
2013-09-15 06:12:00,53.0,49.0,-100.00,West,260,0.0,1.0,87,0.00,,,-99.99,,2013-09-15 11:12:00,
2013-09-15 06:52:00,53.0,49.0,-100.00,WNW,295,0.0,1.0,87,0.00,,,-99.99,,2013-09-15 11:52:00,
2013-09-15 07:02:00,53.0,49.0,-100.00,WNW,295,0.0,1.0,87,0.00,,,-99.99,,2013-09-15 12:02:00,
2013-09-15 07:12:00,53.0,49.0,-100.00,WNW,295,0.0,1.0,87,0.00,,,-99.99,,2013-09-15 12:12:00,
2013-09-15 07:42:00,52.0,49.0,-100.00,SW,230,0.0,0.0,87,0.00,,,-99.99,,2013-09-15 12:42:00,
2013-09-15 07:52:00,52.0,49.0,-100.00,SW,230,0.0,0.0,87,0.00,,,-99.99,,2013-09-15 12:52:00,
2013-09-15 08:02:00,52.0,49.0,-100.00,SW,230,0.0,0.0,87,0.00,,,-99.99,,2013-09-15 13:02:00,
2013-09-15 08:11:00,52.0,49.0,-100.00,SW,230,0.0,0.0,87,0.00,,,-99.99,,2013-09-15 13:11:00,
2013-09-15 08:42:00,53.0,49.0,-100.00,ENE,70,0.0,1.0,87,0.00,,,-99.99,,2013-09-15 13:42:00,
2013-09-15 08:53:00,53.0,49.0,-100.00,ENE,70,0.0,1.0,87,0.00,,,-99.99,,2013-09-15 13:53:00,
2013-09-15 09:02:00,53.0,49.0,-100.00,ENE,70,0.0,1.0,87,0.00,,,-99.99,,2013-09-15 14:02:00,
2013-09-15 09:12:00,53.0,49.0,-100.00,ENE,70,0.0,1.0,87,0.00,,,-99.99,,2013-09-15 14:12:00,
2013-09-15 19:42:00,46.0,38.0,-100.00,WNW,290,0.0,1.0,74,0.00,,,-99.99,,2013-09-16 00:42:00,
2013-09-15 19:52:00,46.0,38.0,-100.00,WNW,290,0.0,1.0,74,0.00,,,-99.99,,2013-09-16 00:52:00,
2013-09-15 20:02:00,46.0,38.0,-100.00,WNW,290,0.0,1.0,74,0.00,,,-99.99,,2013-09-16 01:02:00,
2013-09-15 20:12:00,46.0,38.0,-100.00,WNW,290,0.0,1.0,74,0.00,,,-99.99,,2013-09-16 01:12:00,
2013-09-15 20:42:00,42.0,37.0,-100.00,WNW,290,1.0,1.0,84,0.00,,,-99.99,,2013-09-16 01:42:00,
2013-09-15 20:52:00,42.0,37.0,-100.00,WNW,290,1.0,1.0,84,0.00,,,-99.99,,2013-09-16 01:52:00,
2013-09-15 21:02:00,42.0,37.0,-100.00,WNW,290,1.0,1.0,84,0.00,,,-99.99,,2013-09-16 02:02:00,
2013-09-15 21:12:00,42.0,37.0,-100.00,WNW,290,1.0,1.0,84,0.00,,,-99.99,,2013-09-16 02:12:00,
2013-09-15 21:52:00,38.0,35.0,-100.00,WNW,285,1.0,3.0,86,0.00,,,-99.99,,2013-09-16 02:52:00,
2013-09-15 22:02:00,38.0,35.0,-100.00,WNW,285,1.0,3.0,86,0.00,,,-99.99,,2013-09-16 03:02:00,
2013-09-15 22:11:00,38.0,35.0,-100.00,WNW,285,1.0,3.0,86,0.00,,,-99.99,,2013-09-16 03:11:00,
2013-09-15 23:13:00,37.0,33.0,-100.00,WNW,290,1.0,2.0,87,0.00,,,-99.99,,2013-09-16 04:13:00,
2013-09-15 23:54:00,35.0,32.0,-100.00,WNW,290,1.0,2.0,87,0.00,,,-99.99,,2013-09-16 04:54:00,